createdAt,value
2019-03-22T00:04:07.176Z,8.80
2019-03-22T00:08:20.223Z,8.20
2019-03-22T00:12:33.149Z,8.07
2019-03-22T00:16:46.477Z,9.00
2019-03-22T00:20:59.293Z,8.90
2019-03-22T00:25:12.227Z,9.33
2019-03-22T00:29:25.325Z,9.47
2019-03-22T00:33:38.280Z,8.70
2019-03-22T00:37:52.442Z,8.83
2019-03-22T00:42:05.434Z,9.33
2019-03-22T00:46:18.500Z,9.20
2019-03-22T00:50:31.734Z,9.60
2019-03-22T00:54:44.658Z,9.70
2019-03-22T00:58:57.597Z,9.37
2019-03-22T01:03:10.731Z,10.00
2019-03-22T01:07:23.888Z,10.83
2019-03-22T01:11:36.963Z,9.33
2019-03-22T01:15:50.126Z,9.60
2019-03-22T01:20:03.163Z,10.37
2019-03-22T01:24:16.085Z,10.13
2019-03-22T01:28:29.111Z,10.30
2019-03-22T01:32:41.938Z,10.10
2019-03-22T01:36:55.355Z,9.63
2019-03-22T01:41:08.504Z,9.40
2019-03-22T01:45:21.392Z,10.97
2019-03-22T01:49:34.467Z,11.13
2019-03-22T01:53:47.709Z,12.17
2019-03-22T01:58:00.945Z,11.33
2019-03-22T02:02:13.764Z,11.80
2019-03-22T02:06:26.855Z,11.00
2019-03-22T02:10:40.201Z,10.50
2019-03-22T02:14:53.232Z,11.77
2019-03-22T02:19:06.402Z,11.97
2019-03-22T02:23:19.628Z,11.97
2019-03-22T02:27:32.759Z,12.10
2019-03-22T02:31:45.566Z,13.23
2019-03-22T02:35:58.627Z,11.87
2019-03-22T02:40:11.853Z,11.70
2019-03-22T02:44:24.689Z,13.23
2019-03-22T02:48:37.880Z,13.50
2019-03-22T02:52:51.584Z,12.57
2019-03-22T02:57:05.228Z,14.40
2019-03-22T03:01:18.450Z,13.97
2019-03-22T03:05:31.357Z,13.63
2019-03-22T03:09:44.428Z,12.77
2019-03-22T03:13:57.630Z,14.57
2019-03-22T03:18:11.848Z,16.37
2019-03-22T03:22:24.927Z,15.23
2019-03-22T03:26:38.696Z,16.33
2019-03-22T03:30:51.898Z,15.67
2019-03-22T03:35:05.359Z,15.10
2019-03-22T03:39:18.573Z,16.10
2019-03-22T03:43:31.518Z,17.10
2019-03-22T03:47:44.720Z,17.23
2019-03-22T03:51:57.838Z,15.93
2019-03-22T03:56:10.811Z,16.97
2019-03-22T04:00:23.833Z,17.03
2019-03-22T04:04:37.118Z,18.47
2019-03-22T04:08:50.110Z,19.90
2019-03-22T04:13:03.235Z,20.00
2019-03-22T04:17:16.372Z,23.73
2019-03-22T04:21:30.139Z,22.60
2019-03-22T04:25:43.775Z,19.37
2019-03-22T04:29:57.417Z,20.67
2019-03-22T04:34:10.649Z,20.13
2019-03-22T04:38:23.864Z,20.50
2019-03-22T04:42:36.794Z,20.87
2019-03-22T04:46:50.028Z,25.30
2019-03-22T04:51:05.116Z,22.47
2019-03-22T04:55:18.940Z,23.43
2019-03-22T04:59:32.994Z,23.10
2019-03-22T05:03:46.625Z,23.50
2019-03-22T05:07:59.949Z,24.97
2019-03-22T05:12:15.341Z,21.77
2019-03-22T05:16:29.208Z,21.70
2019-03-22T05:20:44.136Z,21.17
2019-03-22T05:24:59.483Z,17.73
2019-03-22T05:29:14.471Z,17.93
2019-03-22T05:33:27.285Z,21.23
2019-03-22T05:37:40.316Z,19.20
2019-03-22T05:41:53.559Z,18.73
2019-03-22T05:46:06.468Z,17.80
2019-03-22T05:50:19.520Z,18.30
2019-03-22T05:54:33.173Z,19.37
2019-03-22T05:58:46.379Z,21.17
2019-03-22T06:02:59.208Z,19.00
2019-03-22T06:07:12.141Z,19.60
2019-03-22T06:11:25.377Z,19.20
2019-03-22T06:15:38.300Z,21.77
2019-03-22T06:19:52.664Z,26.97
2019-03-22T06:24:06.336Z,24.13
2019-03-22T06:28:20.324Z,24.40
2019-03-22T06:32:33.493Z,22.50
2019-03-22T06:36:47.160Z,25.50
2019-03-22T06:41:00.804Z,26.60
2019-03-22T06:45:14.652Z,21.50
2019-03-22T06:49:27.873Z,27.27
2019-03-22T06:53:40.640Z,30.97
2019-03-22T06:57:54.931Z,31.13
2019-03-22T07:02:07.774Z,37.10
2019-03-22T07:06:20.809Z,33.70
2019-03-22T07:10:34.142Z,36.00
2019-03-22T07:14:47.912Z,33.57
2019-03-22T07:19:01.137Z,38.47
2019-03-22T07:23:14.790Z,38.10
2019-03-22T07:27:28.001Z,34.07
2019-03-22T07:31:40.888Z,35.07
2019-03-22T07:35:54.070Z,30.37
2019-03-22T07:40:07.260Z,31.70
2019-03-22T07:44:20.125Z,30.50
2019-03-22T07:48:33.257Z,31.80
2019-03-22T07:52:46.925Z,32.83
2019-03-22T07:57:00.236Z,32.70
2019-03-22T08:01:13.168Z,30.13
2019-03-22T08:05:26.089Z,29.23
2019-03-22T08:09:39.506Z,27.30
2019-03-22T08:13:52.869Z,26.27
2019-03-22T08:18:06.543Z,26.13
2019-03-22T08:22:19.868Z,25.60
2019-03-22T08:26:33.172Z,27.07
2019-03-22T08:30:46.122Z,25.90
2019-03-22T08:34:59.328Z,25.10
2019-03-22T08:39:12.694Z,24.70
2019-03-22T08:43:25.944Z,23.07
2019-03-22T08:47:38.861Z,23.87
2019-03-22T08:51:51.889Z,22.67
2019-03-22T08:56:05.657Z,26.53
2019-03-22T09:00:18.807Z,25.33
2019-03-22T09:04:31.673Z,25.73
2019-03-22T09:08:47.593Z,23.83
2019-03-22T09:13:00.059Z,24.60
2019-03-22T09:17:13.240Z,25.37
2019-03-22T09:21:26.481Z,27.13
2019-03-22T09:25:39.503Z,28.30
2019-03-22T09:29:52.550Z,28.53
2019-03-22T09:34:05.771Z,26.13
2019-03-22T09:38:19.330Z,26.43
2019-03-22T09:42:33.184Z,26.07
2019-03-22T09:46:46.440Z,28.50
2019-03-22T09:50:59.247Z,29.10
2019-03-22T09:55:14.097Z,27.33
2019-03-22T09:59:27.016Z,25.37
2019-03-22T10:03:42.528Z,25.97
2019-03-22T10:07:54.865Z,23.80
2019-03-22T10:12:07.816Z,25.70
2019-03-22T10:16:21.186Z,25.43
2019-03-22T10:20:34.419Z,27.20
2019-03-22T10:24:47.556Z,28.97
2019-03-22T10:29:00.583Z,28.50
2019-03-22T10:33:22.489Z,28.63
2019-03-22T10:37:28.696Z,25.80
2019-03-22T10:41:41.552Z,26.67
2019-03-22T10:45:54.644Z,26.33
2019-03-22T10:50:07.681Z,27.20
2019-03-22T10:54:20.612Z,27.57
2019-03-22T10:58:34.270Z,26.97
2019-03-22T11:02:48.149Z,26.70
2019-03-22T11:07:01.228Z,29.93
2019-03-22T11:11:14.998Z,31.70
2019-03-22T11:15:28.317Z,32.20
2019-03-22T11:19:42.159Z,29.27
2019-03-22T11:23:55.295Z,30.03
2019-03-22T11:28:08.225Z,31.43
2019-03-22T11:32:21.247Z,31.13
2019-03-22T11:36:33.972Z,31.17
2019-03-22T11:40:47.026Z,30.40
2019-03-22T11:45:00.409Z,32.60
2019-03-22T11:49:13.580Z,33.10
2019-03-22T11:53:26.504Z,34.03
2019-03-22T11:57:39.844Z,32.97
2019-03-22T12:01:53.507Z,31.77
2019-03-22T12:06:06.890Z,31.70
2019-03-22T12:10:20.412Z,34.17
2019-03-22T12:14:33.519Z,31.87
2019-03-22T12:18:46.632Z,33.07
2019-03-22T12:22:59.765Z,29.07
2019-03-22T12:27:12.891Z,31.80
2019-03-22T12:31:25.924Z,31.77
2019-03-22T12:35:39.166Z,32.23
2019-03-22T12:39:52.109Z,30.07
2019-03-22T12:44:05.317Z,28.90
2019-03-22T12:48:19.242Z,33.30
2019-03-22T12:52:32.403Z,30.03
2019-03-22T12:56:45.635Z,32.17
2019-03-22T13:00:58.463Z,33.07
2019-03-22T13:05:11.695Z,29.43
2019-03-22T13:09:24.933Z,31.50
2019-03-22T13:13:37.928Z,27.90
2019-03-22T13:17:51.161Z,30.83
2019-03-22T13:22:04.864Z,32.00
2019-03-22T13:26:18.508Z,32.13
2019-03-22T13:30:36.444Z,32.97
2019-03-22T13:34:49.252Z,31.40
2019-03-22T13:39:04.623Z,32.07
2019-03-22T13:43:17.577Z,34.03
2019-03-22T13:47:30.813Z,31.37
2019-03-22T13:51:43.706Z,31.87
2019-03-22T13:55:56.762Z,34.77
2019-03-22T14:00:10.524Z,35.23
2019-03-22T14:04:23.720Z,34.57
2019-03-22T14:08:37.305Z,33.73
2019-03-22T14:12:50.583Z,32.47
2019-03-22T14:17:03.552Z,32.90
2019-03-22T14:21:16.650Z,36.00
2019-03-22T14:25:30.185Z,36.83
2019-03-22T14:29:43.624Z,38.20
2019-03-22T14:33:57.011Z,37.50
2019-03-22T14:38:09.931Z,35.97
2019-03-22T14:42:22.967Z,38.90
2019-03-22T14:46:36.621Z,36.60
2019-03-22T14:50:50.268Z,33.57
2019-03-22T14:55:03.911Z,36.00
2019-03-22T14:59:17.201Z,33.70
2019-03-22T15:03:30.168Z,37.07
2019-03-22T15:07:43.188Z,32.07
2019-03-22T15:11:57.040Z,35.17
2019-03-22T15:16:20.227Z,35.00
2019-03-22T15:21:11.877Z,32.70
2019-03-22T15:25:49.769Z,35.33
2019-03-22T15:30:20.411Z,36.53
2019-03-22T15:34:55.355Z,37.03
2019-03-22T15:39:44.317Z,38.50
2019-03-22T15:43:57.879Z,38.73
2019-03-22T15:48:11.513Z,36.13
2019-03-22T15:52:24.823Z,38.47
2019-03-22T15:56:37.751Z,32.83
2019-03-22T16:00:50.784Z,35.67
2019-03-22T16:05:04.876Z,35.47
2019-03-22T16:09:17.879Z,30.77
2019-03-22T16:13:31.637Z,37.40
2019-03-22T16:17:45.020Z,39.33
2019-03-22T16:21:58.724Z,39.20
2019-03-22T16:26:12.365Z,39.57
2019-03-22T16:30:25.843Z,38.33
2019-03-22T16:34:38.615Z,40.63
2019-03-22T16:38:51.671Z,39.00
2019-03-22T16:43:05.176Z,40.87
2019-03-22T16:47:19.136Z,42.60
2019-03-22T16:51:32.716Z,42.30
2019-03-22T16:55:45.928Z,43.37
2019-03-22T16:59:59.576Z,42.57
2019-03-22T17:04:13.218Z,38.00
2019-03-22T17:08:27.155Z,36.00
2019-03-22T17:12:40.384Z,37.50
2019-03-22T17:16:54.396Z,37.70
2019-03-22T17:21:07.631Z,40.43
2019-03-22T17:25:20.818Z,38.53
2019-03-22T17:29:33.801Z,40.50
2019-03-22T17:33:46.995Z,35.63
2019-03-22T17:38:00.249Z,40.57
2019-03-22T17:42:13.024Z,39.83
2019-03-22T17:46:26.081Z,40.37
2019-03-22T17:50:39.396Z,38.47
2019-03-22T17:54:52.250Z,44.30
2019-03-22T17:59:05.288Z,38.10
2019-03-22T18:03:18.685Z,40.83
2019-03-22T18:07:32.118Z,36.27
2019-03-22T18:11:45.358Z,34.33
2019-03-22T18:15:58.365Z,35.37
2019-03-22T18:20:12.334Z,40.77
2019-03-22T18:24:25.303Z,34.90
2019-03-22T18:28:38.505Z,34.00
2019-03-22T18:32:52.273Z,34.17
2019-03-22T18:37:06.232Z,33.27
2019-03-22T18:41:19.364Z,29.97
2019-03-22T18:45:32.999Z,35.10
2019-03-22T18:49:46.234Z,39.47
2019-03-22T18:53:59.143Z,34.50
2019-03-22T18:58:13.399Z,36.73
2019-03-22T19:02:26.285Z,36.87
2019-03-22T19:06:39.321Z,34.37
2019-03-22T19:10:52.608Z,32.20
2019-03-22T19:15:05.674Z,34.93
2019-03-22T19:19:18.820Z,35.17
2019-03-22T19:23:31.900Z,34.00
2019-03-22T19:27:45.124Z,49.77
2019-03-22T19:32:00.277Z,38.43
2019-03-22T19:36:12.960Z,37.30
2019-03-22T19:40:26.260Z,39.37
2019-03-22T19:44:39.555Z,34.10
2019-03-22T19:48:53.548Z,40.57
2019-03-22T19:53:06.701Z,35.30
2019-03-22T19:57:19.620Z,35.27
2019-03-22T20:01:32.641Z,30.77
2019-03-22T20:05:45.877Z,29.10
2019-03-22T20:09:58.863Z,49.10
2019-03-22T20:14:11.955Z,40.77
2019-03-22T20:18:25.698Z,44.20
2019-03-22T20:22:39.112Z,35.57
2019-03-22T20:26:52.783Z,36.43
2019-03-22T20:31:06.049Z,36.67
2019-03-22T20:35:19.037Z,35.90
2019-03-22T20:39:32.019Z,29.20
2019-03-22T20:43:45.289Z,30.93
2019-03-22T20:47:58.525Z,100.07
2019-03-22T20:52:11.348Z,63.77
2019-03-22T20:56:24.523Z,36.33
2019-03-22T21:00:38.155Z,32.67
2019-03-22T21:04:51.375Z,36.33
2019-03-22T21:09:04.600Z,34.53
2019-03-22T21:13:17.684Z,32.63
2019-03-22T21:17:31.044Z,35.43
2019-03-22T21:21:44.502Z,37.90
2019-03-22T21:25:57.741Z,42.67
2019-03-22T21:30:10.579Z,49.60
2019-03-22T21:34:23.702Z,48.70
2019-03-22T21:38:37.435Z,49.87
2019-03-22T21:42:50.714Z,47.23
2019-03-22T21:47:04.016Z,47.37
2019-03-22T21:51:17.336Z,47.53
2019-03-22T21:55:30.842Z,50.90
2019-03-22T21:59:43.723Z,53.40
2019-03-22T22:03:56.851Z,45.93
2019-03-22T22:08:09.987Z,48.50
2019-03-22T22:12:22.937Z,45.23
2019-03-22T22:16:36.118Z,39.83
2019-03-22T22:20:49.577Z,38.63
2019-03-22T22:25:02.820Z,33.17
2019-03-22T22:29:15.648Z,31.07
2019-03-22T22:33:28.777Z,32.10
2019-03-22T22:37:42.216Z,29.43
2019-03-22T22:41:55.799Z,28.43
2019-03-22T22:46:10.524Z,28.03
2019-03-22T22:50:23.572Z,28.97
2019-03-22T22:54:36.604Z,26.47
2019-03-22T22:58:50.608Z,25.07
2019-03-22T23:03:04.063Z,25.50
2019-03-22T23:07:17.372Z,25.57
2019-03-22T23:11:31.090Z,25.00
2019-03-22T23:15:44.864Z,22.83
2019-03-22T23:19:58.218Z,24.07
2019-03-22T23:24:11.790Z,23.53
2019-03-22T23:28:25.037Z,26.90
2019-03-22T23:32:37.956Z,24.67
2019-03-22T23:36:51.131Z,24.20
2019-03-22T23:41:04.325Z,25.00
2019-03-22T23:45:17.176Z,25.37
2019-03-22T23:49:31.493Z,24.87
2019-03-22T23:53:44.973Z,25.23
2019-03-22T23:57:58.287Z,27.80
